Terminal Aerodrome Forecast
Issued by NWS

Home | Current Version | Previous Version | Text Only | Print | Product List | Glossary On
Versions: 1 2 3 4 5 6 7 8 9 10 11 12 13 14 15 16 17 18 19 20
000
FTUS45 KSLC 232256 AAA
TAFBCE
TAF AMD
KBCE 232256Z 2323/2418 22010G16KT P6SM VCTS SCT110CB
     FM232330 22010G16KT P6SM SCT110
     FM240200 27006KT P6SM FEW120=

USA.gov is the U.S. government's official web portal to all federal, state and local government web resources and services.